createdAt,value
2024-04-05T00:00:15.066Z,0.70
2024-04-05T00:02:47.952Z,0.70
2024-04-05T00:05:00.412Z,0.80
2024-04-05T00:07:13.575Z,0.70
2024-04-05T00:09:27.068Z,0.80
2024-04-05T00:12:08.440Z,0.80
2024-04-05T00:14:20.966Z,0.70
2024-04-05T00:16:33.548Z,0.70
2024-04-05T00:18:46.360Z,0.70
2024-04-05T00:20:58.736Z,0.90
2024-04-05T00:23:11.277Z,0.80
2024-04-05T00:25:24.354Z,0.70
2024-04-05T00:27:36.825Z,0.90
2024-04-05T00:29:49.607Z,0.90
2024-04-05T00:32:02.968Z,0.90
2024-04-05T00:34:15.577Z,1.00
2024-04-05T00:36:28.033Z,1.20
2024-04-05T00:38:40.518Z,0.80
2024-04-05T00:40:53.913Z,1.10
2024-04-05T00:43:06.547Z,1.00
2024-04-05T00:45:19.071Z,1.30
2024-04-05T00:47:34.628Z,1.00
2024-04-05T00:49:48.643Z,1.00
2024-04-05T00:52:01.472Z,1.00
2024-04-05T00:54:14.349Z,0.90
2024-04-05T00:56:29.099Z,0.80
2024-04-05T00:58:42.021Z,0.90
2024-04-05T01:00:54.954Z,0.70
2024-04-05T01:03:07.574Z,0.90
2024-04-05T01:05:20.723Z,0.90
2024-04-05T01:07:33.725Z,0.80
2024-04-05T01:09:46.140Z,1.00
2024-04-05T01:11:59.333Z,0.90
2024-04-05T01:14:11.833Z,1.00
2024-04-05T01:16:24.370Z,1.20
2024-04-05T01:18:36.785Z,1.10
2024-04-05T01:20:53.378Z,0.90
2024-04-05T01:23:11.409Z,1.10
2024-04-05T01:25:24.191Z,1.00
2024-04-05T01:27:36.626Z,1.10
2024-04-05T01:29:49.090Z,1.80
2024-04-05T01:32:01.621Z,1.60
2024-04-05T01:34:14.056Z,1.50
2024-04-05T01:36:26.549Z,1.60
2024-04-05T01:38:39.153Z,1.10
2024-04-05T01:40:51.603Z,1.30
2024-04-05T01:43:04.284Z,1.10
2024-04-05T01:45:16.953Z,0.90
2024-04-05T01:47:29.467Z,1.00
2024-04-05T01:49:41.996Z,1.10
2024-04-05T01:51:54.543Z,0.80
2024-04-05T01:54:07.067Z,1.00
2024-04-05T01:56:19.604Z,1.00
2024-04-05T01:58:32.269Z,1.30
2024-04-05T02:00:44.662Z,1.30
2024-04-05T02:02:57.128Z,1.20
2024-04-05T02:05:09.775Z,1.00
2024-04-05T02:07:25.667Z,0.90
2024-04-05T02:09:38.512Z,0.90
2024-04-05T02:11:51.163Z,1.00
2024-04-05T02:14:04.324Z,1.10
2024-04-05T02:16:16.733Z,1.40
2024-04-05T02:18:29.277Z,1.60
2024-04-05T02:20:44.204Z,1.70
2024-04-05T02:22:56.730Z,1.50
2024-04-05T02:25:09.249Z,1.40
2024-04-05T02:27:21.649Z,1.30
2024-04-05T02:29:34.314Z,1.20
2024-04-05T02:31:46.875Z,1.40
2024-04-05T02:33:59.411Z,1.20
2024-04-05T02:36:11.746Z,1.10
2024-04-05T02:38:24.519Z,1.20
2024-04-05T02:40:37.103Z,1.00
2024-04-05T02:42:49.654Z,1.00
2024-04-05T02:45:03.058Z,1.30
2024-04-05T02:47:15.596Z,1.10
2024-04-05T02:49:28.065Z,1.60
2024-04-05T02:51:40.546Z,1.70
2024-04-05T02:53:52.984Z,1.30
2024-04-05T02:56:05.952Z,1.30
2024-04-05T02:58:18.473Z,1.00
2024-04-05T03:00:31.002Z,1.10
2024-04-05T03:02:43.449Z,1.20
2024-04-05T03:04:55.844Z,1.40
2024-04-05T03:07:08.353Z,1.10
2024-04-05T03:09:21.405Z,1.10
2024-04-05T03:11:33.828Z,1.30
2024-04-05T03:13:46.411Z,1.20
2024-04-05T03:15:58.866Z,1.70
2024-04-05T03:18:11.412Z,2.80
2024-04-05T03:20:23.969Z,2.40
2024-04-05T03:22:36.425Z,2.10
2024-04-05T03:24:48.840Z,1.50
2024-04-05T03:27:01.401Z,2.30
2024-04-05T03:29:15.995Z,2.40
2024-04-05T03:31:29.115Z,2.60
2024-04-05T03:33:41.600Z,2.60
2024-04-05T03:35:54.043Z,3.50
2024-04-05T03:38:06.605Z,3.50
2024-04-05T03:40:19.299Z,3.70
2024-04-05T03:42:31.823Z,4.70
2024-04-05T03:44:44.645Z,5.20
2024-04-05T03:46:57.093Z,5.40
2024-04-05T03:49:09.995Z,5.60
2024-04-05T03:51:22.557Z,5.00
2024-04-05T03:53:35.040Z,4.90
2024-04-05T03:55:47.538Z,3.80
2024-04-05T03:58:00.083Z,2.80
2024-04-05T04:00:12.720Z,2.90
2024-04-05T04:02:25.268Z,2.50
2024-04-05T04:04:38.110Z,2.30
2024-04-05T04:06:53.526Z,2.40
2024-04-05T04:09:06.395Z,2.70
2024-04-05T04:11:18.943Z,2.80
2024-04-05T04:13:31.960Z,3.00
2024-04-05T04:15:44.745Z,2.60
2024-04-05T04:17:57.176Z,2.70
2024-04-05T04:20:10.580Z,2.50
2024-04-05T04:22:23.015Z,3.10
2024-04-05T04:24:35.582Z,3.00
2024-04-05T04:26:47.995Z,2.90
2024-04-05T04:29:00.482Z,2.60
2024-04-05T04:31:23.079Z,2.30
2024-04-05T04:33:35.594Z,2.60
2024-04-05T04:35:48.186Z,2.60
2024-04-05T04:38:00.655Z,2.50
2024-04-05T04:40:13.113Z,2.30
2024-04-05T04:42:25.678Z,2.50
2024-04-05T04:44:38.338Z,2.40
2024-04-05T04:46:50.943Z,2.20
2024-04-05T04:49:03.603Z,2.40
2024-04-05T04:51:16.064Z,2.40
2024-04-05T04:53:28.484Z,2.10
2024-04-05T04:55:42.702Z,2.10
2024-04-05T04:57:55.160Z,2.40
2024-04-05T05:00:08.854Z,2.20
2024-04-05T05:02:21.355Z,2.20
2024-04-05T05:04:33.818Z,2.10
2024-04-05T05:06:47.003Z,2.00
2024-04-05T05:08:59.771Z,2.00
2024-04-05T05:11:12.317Z,2.10
2024-04-05T05:13:24.778Z,2.10
2024-04-05T05:15:37.374Z,2.00
2024-04-05T05:17:50.133Z,2.00
2024-04-05T05:20:02.522Z,2.00
2024-04-05T05:22:15.032Z,1.90
2024-04-05T05:24:27.511Z,2.00
2024-04-05T05:26:40.026Z,1.90
2024-04-05T05:28:52.477Z,1.80
2024-04-05T05:31:04.937Z,2.00
2024-04-05T05:33:17.439Z,1.80
2024-04-05T05:35:30.686Z,2.20
2024-04-05T05:37:45.354Z,2.10
2024-04-05T05:39:58.923Z,2.30
2024-04-05T05:42:11.805Z,2.10
2024-04-05T05:44:24.521Z,1.90
2024-04-05T05:46:37.035Z,2.10
2024-04-05T05:48:49.904Z,2.00
2024-04-05T05:51:02.477Z,1.80
2024-04-05T05:53:15.031Z,2.10
2024-04-05T05:55:28.407Z,1.90
2024-04-05T05:57:40.918Z,1.90
2024-04-05T05:59:53.376Z,2.10
2024-04-05T06:02:08.216Z,1.90
2024-04-05T06:04:21.885Z,2.00
2024-04-05T06:06:34.278Z,2.00
2024-04-05T06:08:46.743Z,2.00
2024-04-05T06:10:59.861Z,2.10
2024-04-05T06:13:12.371Z,1.90
2024-04-05T06:15:24.816Z,2.30
2024-04-05T06:17:37.543Z,1.80
2024-04-05T06:19:55.512Z,2.10
2024-04-05T06:22:07.970Z,2.10
2024-04-05T06:24:20.480Z,1.80
2024-04-05T06:26:36.323Z,1.90
2024-04-05T06:28:48.772Z,2.00
2024-04-05T06:31:02.294Z,1.90
2024-04-05T06:33:15.282Z,1.80
2024-04-05T06:35:27.635Z,1.90
2024-04-05T06:37:40.088Z,2.30
2024-04-05T06:39:56.082Z,2.30
2024-04-05T06:42:09.146Z,2.40
2024-04-05T06:44:22.076Z,2.40
2024-04-05T06:46:34.528Z,2.50
2024-04-05T06:48:47.204Z,2.00
2024-04-05T06:50:59.647Z,1.90
2024-04-05T06:53:12.640Z,1.70
2024-04-05T06:55:25.472Z,1.90
2024-04-05T06:57:38.574Z,2.00
2024-04-05T06:59:51.051Z,2.10
2024-04-05T07:02:04.626Z,2.00
2024-04-05T07:04:17.125Z,1.90
2024-04-05T07:06:33.249Z,2.20
2024-04-05T07:08:46.781Z,2.20
2024-04-05T07:10:59.620Z,2.10
2024-04-05T07:13:12.114Z,2.30
2024-04-05T07:15:24.843Z,2.40
2024-04-05T07:17:37.413Z,2.30
2024-04-05T07:19:49.911Z,2.10
2024-04-05T07:22:02.409Z,2.10
2024-04-05T07:24:15.660Z,1.90
2024-04-05T07:26:28.827Z,2.10
2024-04-05T07:28:41.251Z,1.90
2024-04-05T07:30:56.507Z,2.00
2024-04-05T07:33:09.426Z,2.10
2024-04-05T07:35:23.178Z,2.00
2024-04-05T07:37:35.608Z,2.10
2024-04-05T07:39:51.089Z,1.90
2024-04-05T07:42:03.667Z,2.00
2024-04-05T07:44:16.039Z,1.70
2024-04-05T07:46:28.481Z,2.20
2024-04-05T07:48:41.755Z,2.00
2024-04-05T07:50:58.407Z,2.00
2024-04-05T07:53:10.822Z,1.80
2024-04-05T07:55:23.276Z,1.90
2024-04-05T07:57:40.423Z,1.90
2024-04-05T07:59:52.806Z,2.00
2024-04-05T08:02:05.994Z,1.90
2024-04-05T08:04:18.712Z,2.00
2024-04-05T08:06:31.149Z,2.10
2024-04-05T08:08:46.227Z,2.30
2024-04-05T08:11:02.218Z,2.10
2024-04-05T08:13:14.902Z,2.00
2024-04-05T08:15:28.710Z,2.20
2024-04-05T08:17:41.324Z,2.00
2024-04-05T08:19:53.778Z,2.00
2024-04-05T08:22:07.632Z,2.00
2024-04-05T08:24:20.132Z,1.80
2024-04-05T08:26:32.957Z,2.20
2024-04-05T08:28:45.413Z,2.20
2024-04-05T08:30:58.350Z,2.30
2024-04-05T08:33:10.763Z,2.30
2024-04-05T08:35:23.313Z,2.30
2024-04-05T08:37:36.753Z,2.30
2024-04-05T08:39:49.187Z,2.50
2024-04-05T08:42:17.108Z,2.00
2024-04-05T08:44:32.894Z,2.70
2024-04-05T08:46:45.394Z,2.50
2024-04-05T08:49:00.553Z,2.60
2024-04-05T08:51:14.094Z,2.50
2024-04-05T08:53:26.526Z,2.10
2024-04-05T08:55:39.626Z,2.50
2024-04-05T08:57:53.040Z,2.40
2024-04-05T09:00:08.953Z,2.50
2024-04-05T09:02:24.361Z,2.20
2024-04-05T09:04:37.875Z,2.50
2024-04-05T09:06:50.298Z,2.10
2024-04-05T09:09:02.762Z,2.20
2024-04-05T09:11:20.314Z,2.30
2024-04-05T09:13:32.716Z,1.80
2024-04-05T09:15:52.552Z,2.30
2024-04-05T09:18:05.303Z,2.50
2024-04-05T09:20:25.221Z,2.30
2024-04-05T09:22:37.774Z,2.20
2024-04-05T09:25:00.431Z,1.90
2024-04-05T09:27:19.751Z,2.00
2024-04-05T09:29:32.814Z,2.20
2024-04-05T09:31:48.071Z,2.30
2024-04-05T09:34:15.514Z,2.40
2024-04-05T09:36:29.947Z,2.00
2024-04-05T09:38:45.728Z,2.30
2024-04-05T09:40:59.048Z,2.20
2024-04-05T09:43:12.766Z,2.20
2024-04-05T09:45:25.383Z,2.40
2024-04-05T09:47:41.107Z,2.40
2024-04-05T09:49:53.618Z,2.40
2024-04-05T09:52:10.797Z,2.40
2024-04-05T09:54:25.943Z,2.30
2024-04-05T09:56:39.696Z,3.70
2024-04-05T09:58:55.280Z,2.50
2024-04-05T10:01:09.520Z,2.50
2024-04-05T10:03:22.358Z,2.20
2024-04-05T10:05:35.217Z,2.20
2024-04-05T10:07:47.740Z,2.40
2024-04-05T10:10:09.918Z,2.30
2024-04-05T10:12:24.101Z,2.60
2024-04-05T10:14:37.305Z,2.40
2024-04-05T10:16:49.849Z,2.50
2024-04-05T10:19:12.806Z,2.50
2024-04-05T10:21:33.303Z,2.70
2024-04-05T10:23:48.488Z,2.70
2024-04-05T10:26:04.048Z,2.80
2024-04-05T10:28:20.290Z,2.60
2024-04-05T10:30:33.563Z,2.40
2024-04-05T10:33:00.083Z,2.50
2024-04-05T10:35:15.169Z,2.70
2024-04-05T10:37:32.727Z,2.50
2024-04-05T10:39:45.581Z,3.00
2024-04-05T10:41:58.037Z,2.50
2024-04-05T10:44:10.942Z,2.70
2024-04-05T10:46:23.469Z,2.80
2024-04-05T10:48:36.110Z,2.50
2024-04-05T10:50:49.779Z,2.40
2024-04-05T10:53:02.263Z,2.30
2024-04-05T10:55:15.044Z,2.70
2024-04-05T10:57:31.443Z,2.40
2024-04-05T10:59:45.694Z,2.30
2024-04-05T11:01:58.255Z,2.70
2024-04-05T11:04:11.603Z,2.40
2024-04-05T11:06:24.162Z,2.60
2024-04-05T11:08:36.629Z,2.50
2024-04-05T11:10:49.076Z,2.50
2024-04-05T11:13:12.830Z,2.20
2024-04-05T11:15:25.804Z,2.50
2024-04-05T11:17:39.869Z,2.30
2024-04-05T11:19:52.292Z,2.40
2024-04-05T11:22:05.094Z,2.40
2024-04-05T11:24:18.362Z,2.70
2024-04-05T11:26:31.802Z,2.70
2024-04-05T11:28:46.243Z,2.60
2024-04-05T11:30:58.882Z,2.30
2024-04-05T11:33:12.031Z,2.60
2024-04-05T11:35:24.507Z,2.60
2024-04-05T11:37:36.950Z,2.40
2024-04-05T11:39:49.501Z,2.60
2024-04-05T11:42:01.870Z,2.30
2024-04-05T11:44:14.235Z,2.30
2024-04-05T11:46:27.571Z,2.30
2024-04-05T11:48:39.948Z,2.40
2024-04-05T11:50:52.365Z,2.30
2024-04-05T11:53:05.245Z,2.70
2024-04-05T11:55:19.001Z,2.40
2024-04-05T11:57:32.080Z,2.20
2024-04-05T11:59:45.030Z,2.30
2024-04-05T12:01:58.517Z,2.40
2024-04-05T12:04:12.270Z,2.70
2024-04-05T12:06:24.808Z,2.10
2024-04-05T12:08:37.256Z,2.30
2024-04-05T12:10:49.656Z,2.40
2024-04-05T12:13:02.127Z,2.70
2024-04-05T12:15:16.532Z,2.30
2024-04-05T12:17:28.880Z,2.10
2024-04-05T12:19:41.474Z,2.20
2024-04-05T12:21:54.514Z,2.20
2024-04-05T12:24:08.276Z,2.40
2024-04-05T12:26:23.506Z,2.10
2024-04-05T12:28:39.293Z,2.10
2024-04-05T12:30:51.875Z,2.20
2024-04-05T12:33:04.378Z,2.30
2024-04-05T12:35:17.281Z,2.30
2024-04-05T12:37:29.667Z,2.00
2024-04-05T12:39:46.495Z,2.40
2024-04-05T12:41:58.989Z,2.60
2024-04-05T12:44:11.398Z,2.10
2024-04-05T12:46:23.950Z,2.40
2024-04-05T12:48:36.727Z,2.50
2024-04-05T12:51:00.360Z,2.10
2024-04-05T12:53:13.447Z,2.00
2024-04-05T12:55:25.810Z,2.20
2024-04-05T12:57:39.012Z,2.20
2024-04-05T12:59:51.713Z,2.00
2024-04-05T13:02:04.787Z,2.30
2024-04-05T13:04:17.267Z,2.20
2024-04-05T13:06:29.709Z,2.10
2024-04-05T13:08:42.286Z,2.10
2024-04-05T13:10:58.451Z,2.50
2024-04-05T13:13:10.928Z,1.90
2024-04-05T13:15:23.423Z,2.20
2024-04-05T13:17:36.393Z,2.10
2024-04-05T13:19:50.061Z,2.30
2024-04-05T13:22:02.722Z,2.20
2024-04-05T13:24:15.301Z,2.40
2024-04-05T13:26:27.778Z,2.40
2024-04-05T13:28:41.075Z,2.30
2024-04-05T13:30:59.891Z,2.70
2024-04-05T13:33:12.359Z,2.60
2024-04-05T13:35:29.551Z,2.60
2024-04-05T13:37:41.984Z,2.50
2024-04-05T13:39:54.562Z,2.60
2024-04-05T13:42:07.510Z,2.30
2024-04-05T13:44:21.243Z,2.30
2024-04-05T13:46:33.912Z,2.50
2024-04-05T13:48:52.691Z,2.40
2024-04-05T13:51:08.277Z,2.60
2024-04-05T13:53:20.685Z,2.30
2024-04-05T13:55:33.246Z,2.50
2024-04-05T13:57:45.795Z,2.30
2024-04-05T13:59:58.256Z,2.40
2024-04-05T14:02:10.821Z,2.40
2024-04-05T14:04:23.322Z,2.30
2024-04-05T14:06:35.778Z,2.60
2024-04-05T14:08:48.337Z,2.20
2024-04-05T14:11:01.387Z,2.20
2024-04-05T14:13:14.917Z,2.60
2024-04-05T14:15:27.743Z,2.20
2024-04-05T14:17:41.117Z,2.10
2024-04-05T14:19:55.105Z,2.10
2024-04-05T14:22:07.867Z,2.10
2024-04-05T14:24:20.370Z,2.20
2024-04-05T14:26:32.765Z,1.90
2024-04-05T14:28:45.625Z,2.20
2024-04-05T14:31:08.442Z,2.20
2024-04-05T14:33:29.008Z,2.10
2024-04-05T14:35:41.457Z,2.00
2024-04-05T14:37:53.946Z,2.30
2024-04-05T14:40:06.836Z,2.00
2024-04-05T14:42:19.594Z,2.10
2024-04-05T14:44:32.988Z,2.00
2024-04-05T14:46:46.222Z,1.90
2024-04-05T14:48:59.701Z,2.00
2024-04-05T14:51:12.198Z,2.00
2024-04-05T14:53:24.979Z,1.80
2024-04-05T14:55:37.434Z,2.00
2024-04-05T14:57:49.869Z,2.10
2024-04-05T15:00:05.143Z,2.20
2024-04-05T15:02:17.670Z,2.20
2024-04-05T15:04:30.132Z,2.10
2024-04-05T15:06:42.634Z,2.60
2024-04-05T15:08:55.053Z,2.00
2024-04-05T15:11:09.233Z,2.10
2024-04-05T15:13:21.670Z,1.90
2024-04-05T15:15:34.068Z,2.10
2024-04-05T15:17:46.864Z,1.80
2024-04-05T15:19:59.313Z,2.00
2024-04-05T15:22:11.927Z,2.00
2024-04-05T15:24:24.337Z,1.80
2024-04-05T15:26:36.721Z,1.80
2024-04-05T15:28:49.905Z,1.80
2024-04-05T15:31:02.847Z,1.70
2024-04-05T15:33:15.241Z,1.80
2024-04-05T15:35:27.652Z,1.90
2024-04-05T15:37:40.145Z,1.90
2024-04-05T15:39:52.587Z,1.90
2024-04-05T15:42:05.411Z,1.90
2024-04-05T15:44:17.848Z,1.90
2024-04-05T15:46:31.864Z,1.90
2024-04-05T15:48:44.657Z,1.60
2024-04-05T15:51:02.693Z,2.00
2024-04-05T15:53:16.957Z,1.90
2024-04-05T15:55:29.358Z,1.50
2024-04-05T15:57:41.765Z,1.70
2024-04-05T15:59:54.625Z,1.90
2024-04-05T16:02:07.103Z,1.60
2024-04-05T16:04:20.142Z,1.80
2024-04-05T16:06:33.916Z,1.80
2024-04-05T16:08:46.381Z,1.80
2024-04-05T16:11:05.980Z,1.90
2024-04-05T16:13:18.605Z,1.60
2024-04-05T16:15:34.478Z,1.70
2024-04-05T16:17:47.126Z,1.70
2024-04-05T16:20:04.054Z,2.20
2024-04-05T16:22:16.480Z,1.90
2024-04-05T16:24:28.949Z,1.70
2024-04-05T16:26:41.410Z,1.90
2024-04-05T16:28:53.799Z,1.80
2024-04-05T16:31:10.439Z,2.10
2024-04-05T16:33:23.515Z,2.00
2024-04-05T16:35:36.163Z,1.80
2024-04-05T16:37:48.695Z,1.80
2024-04-05T16:40:01.150Z,1.70
2024-04-05T16:42:15.792Z,1.90
2024-04-05T16:44:28.220Z,2.00
2024-04-05T16:46:40.647Z,2.00
2024-04-05T16:48:53.158Z,1.80
2024-04-05T16:51:12.259Z,2.00
2024-04-05T16:53:24.782Z,2.30
2024-04-05T16:55:40.852Z,2.00
2024-04-05T16:57:53.360Z,2.30
2024-04-05T17:00:07.148Z,1.90
2024-04-05T17:02:19.813Z,1.80
2024-04-05T17:04:32.292Z,1.90
2024-04-05T17:06:45.112Z,1.90
2024-04-05T17:08:57.571Z,1.90
2024-04-05T17:11:14.535Z,2.00
2024-04-05T17:13:52.469Z,2.10
2024-04-05T17:16:08.770Z,2.10
2024-04-05T17:18:21.226Z,1.90
2024-04-05T17:20:33.622Z,1.90
2024-04-05T17:22:47.199Z,1.80
2024-04-05T17:24:59.671Z,1.90
2024-04-05T17:27:12.124Z,2.10
2024-04-05T17:29:24.568Z,1.90
2024-04-05T17:31:37.094Z,1.90
2024-04-05T17:33:49.734Z,2.20
2024-04-05T17:36:02.098Z,2.30
2024-04-05T17:38:18.415Z,2.80
2024-04-05T17:40:30.804Z,2.20
2024-04-05T17:42:43.266Z,2.30
2024-04-05T17:44:55.814Z,2.50
2024-04-05T17:47:08.243Z,2.40
2024-04-05T17:49:20.970Z,2.20
2024-04-05T17:51:33.454Z,3.60
2024-04-05T17:53:46.471Z,2.70
2024-04-05T17:56:01.917Z,2.60
2024-04-05T17:58:14.323Z,2.10
2024-04-05T18:00:27.313Z,2.00
2024-04-05T18:02:39.897Z,2.00
2024-04-05T18:04:54.101Z,2.30
2024-04-05T18:07:06.580Z,2.40
2024-04-05T18:09:19.077Z,2.30
2024-04-05T18:11:31.613Z,2.30
2024-04-05T18:13:45.540Z,2.20
2024-04-05T18:15:57.957Z,2.20
2024-04-05T18:18:10.803Z,2.10
2024-04-05T18:20:23.600Z,2.10
2024-04-05T18:22:36.568Z,2.10
2024-04-05T18:24:49.285Z,2.10
2024-04-05T18:27:01.826Z,2.30
2024-04-05T18:29:14.302Z,2.40
2024-04-05T18:31:27.118Z,2.10
2024-04-05T18:33:39.558Z,2.50
2024-04-05T18:35:51.952Z,2.60
2024-04-05T18:38:07.090Z,3.30
2024-04-05T18:40:19.789Z,3.80
2024-04-05T18:42:33.241Z,4.00
2024-04-05T18:44:45.813Z,4.00
2024-04-05T18:46:58.327Z,4.00
2024-04-05T18:49:14.627Z,4.20
2024-04-05T18:51:27.111Z,4.10
2024-04-05T18:53:40.724Z,5.30
2024-04-05T18:55:53.995Z,2.90
2024-04-05T18:58:07.241Z,2.70
2024-04-05T19:00:22.171Z,2.90
2024-04-05T19:02:37.255Z,3.10
2024-04-05T19:04:50.824Z,2.80
2024-04-05T19:07:03.328Z,3.00
2024-04-05T19:09:16.089Z,2.60
2024-04-05T19:11:28.566Z,3.20
2024-04-05T19:13:47.327Z,3.00
2024-04-05T19:15:59.829Z,3.00
2024-04-05T19:18:14.910Z,2.90
2024-04-05T19:20:27.517Z,3.50
2024-04-05T19:22:39.987Z,3.00
2024-04-05T19:24:52.470Z,2.60
2024-04-05T19:27:08.782Z,2.60
2024-04-05T19:29:21.430Z,2.40
2024-04-05T19:31:38.257Z,2.60
2024-04-05T19:33:51.002Z,2.50
2024-04-05T19:36:05.408Z,2.50
2024-04-05T19:38:18.367Z,3.20
2024-04-05T19:40:34.285Z,3.50
2024-04-05T19:42:46.980Z,3.40
2024-04-05T19:44:59.436Z,3.10
2024-04-05T19:47:12.694Z,3.80
2024-04-05T19:49:25.798Z,3.20
2024-04-05T19:51:38.293Z,3.30
2024-04-05T19:53:50.892Z,3.10
2024-04-05T19:56:03.939Z,2.20
2024-04-05T19:58:23.101Z,2.50
2024-04-05T20:00:42.983Z,2.20
2024-04-05T20:02:55.696Z,1.90
2024-04-05T20:05:09.057Z,2.10
2024-04-05T20:07:22.898Z,1.90
2024-04-05T20:09:35.805Z,2.10
2024-04-05T20:11:48.213Z,2.30
2024-04-05T20:14:00.759Z,2.10
2024-04-05T20:16:13.241Z,2.10
2024-04-05T20:18:25.767Z,2.20
2024-04-05T20:20:38.281Z,2.00
2024-04-05T20:22:51.068Z,2.10
2024-04-05T20:25:03.678Z,2.20
2024-04-05T20:27:16.220Z,2.30
2024-04-05T20:29:47.301Z,2.00
2024-04-05T20:32:18.390Z,2.10
2024-04-05T20:34:30.981Z,2.10
2024-04-05T20:36:43.727Z,2.30
2024-04-05T20:38:56.317Z,2.20
2024-04-05T20:41:09.631Z,2.00
2024-04-05T20:43:22.118Z,1.90
2024-04-05T20:45:34.547Z,2.20
2024-04-05T20:47:48.012Z,2.10
2024-04-05T20:50:00.471Z,2.40
2024-04-05T20:52:13.363Z,2.00
2024-04-05T20:54:28.572Z,1.90
2024-04-05T20:56:41.092Z,2.10
2024-04-05T20:58:54.219Z,2.10
2024-04-05T21:01:06.656Z,2.20
2024-04-05T21:03:19.031Z,2.20
2024-04-05T21:05:31.565Z,2.40
2024-04-05T21:07:44.188Z,2.10
2024-04-05T21:09:57.967Z,2.30
2024-04-05T21:12:10.511Z,2.40
2024-04-05T21:14:22.950Z,2.30
2024-04-05T21:16:35.612Z,2.10
2024-04-05T21:18:48.048Z,2.20
2024-04-05T21:21:00.609Z,2.00
2024-04-05T21:23:13.913Z,2.20
2024-04-05T21:25:26.415Z,2.10
2024-04-05T21:27:38.867Z,2.10
2024-04-05T21:29:51.369Z,1.80
2024-04-05T21:32:04.210Z,1.90
2024-04-05T21:34:16.688Z,1.70
2024-04-05T21:36:29.183Z,1.70
2024-04-05T21:38:41.697Z,1.60
2024-04-05T21:40:54.262Z,1.40
2024-04-05T21:43:06.690Z,1.50
2024-04-05T21:45:19.249Z,1.40
2024-04-05T21:47:31.737Z,1.30
2024-04-05T21:51:59.658Z,1.60
2024-04-05T21:54:12.277Z,1.50
2024-04-05T21:56:24.906Z,1.30
2024-04-05T21:58:37.387Z,1.20
2024-04-05T22:00:50.006Z,1.20
2024-04-05T22:03:03.662Z,1.40
2024-04-05T22:05:16.662Z,1.20
2024-04-05T22:07:29.130Z,1.30
2024-04-05T22:09:41.596Z,1.30
2024-04-05T22:11:54.196Z,1.30
2024-04-05T22:14:13.945Z,1.30
2024-04-05T22:16:32.694Z,1.20
2024-04-05T22:18:45.103Z,1.30
2024-04-05T22:21:01.396Z,1.40
2024-04-05T22:23:13.957Z,1.30
2024-04-05T22:25:26.522Z,1.50
2024-04-05T22:27:39.670Z,1.30
2024-04-05T22:29:52.553Z,1.40
2024-04-05T22:32:05.265Z,1.50
2024-04-05T22:34:17.658Z,1.40
2024-04-05T22:36:30.093Z,1.30
2024-04-05T22:38:42.713Z,1.30
2024-04-05T22:40:55.942Z,1.40
2024-04-05T22:43:10.339Z,1.50
2024-04-05T22:45:24.525Z,1.30
2024-04-05T22:47:38.775Z,1.50
2024-04-05T22:49:52.616Z,1.50
2024-04-05T22:52:05.336Z,1.40
2024-04-05T22:54:19.723Z,1.30
2024-04-05T22:56:32.402Z,1.20
2024-04-05T22:58:47.020Z,1.40
2024-04-05T23:00:59.429Z,1.40
2024-04-05T23:03:11.840Z,1.30
2024-04-05T23:05:24.345Z,1.60
2024-04-05T23:07:37.961Z,1.60
2024-04-05T23:09:50.343Z,1.20
2024-04-05T23:12:03.043Z,1.30
2024-04-05T23:14:15.614Z,1.40
2024-04-05T23:16:28.083Z,1.30
2024-04-05T23:18:40.590Z,1.50
2024-04-05T23:20:53.099Z,1.40
2024-04-05T23:23:05.771Z,1.20
2024-04-05T23:25:18.308Z,1.20
2024-04-05T23:27:30.755Z,1.10
2024-04-05T23:29:44.891Z,1.70
2024-04-05T23:31:59.596Z,1.50
2024-04-05T23:34:12.073Z,0.90
2024-04-05T23:36:24.490Z,0.90
2024-04-05T23:38:39.023Z,0.90
2024-04-05T23:40:51.430Z,0.80
2024-04-05T23:43:05.086Z,0.90
2024-04-05T23:45:17.551Z,0.60
2024-04-05T23:47:30.152Z,0.70
2024-04-05T23:49:42.722Z,0.90
2024-04-05T23:51:55.091Z,0.70
2024-04-05T23:54:07.517Z,0.90
2024-04-05T23:56:45.477Z,0.70
2024-04-05T23:58:58.076Z,0.90
